Terminal Aerodrome Forecast
Issued by NWS Portland, ME

Home | Current Version | Previous Version | Text Only | Print | Product List | Glossary On
Versions: 1 2 3 4 5 6 7 8 9 10 11 12 13 14 15 16 17
997
FTUS41 KGYX 280900 AAA
TAFCON
TAF AMD
KCON 280900Z 2809/2906 00000KT P6SM SKC
     FM290000 00000KT P6SM OVC250
     FM290300 00000KT 3SM BR SCT250 PROB30 2903/2905 5SM -TSRA
      BKN040CB=

USA.gov is the U.S. government's official web portal to all federal, state and local government web resources and services.